createdAt,value
2024-02-09T00:00:46.432Z,98013.03
2024-02-09T00:03:14.864Z,98004.44
2024-02-09T00:05:44.602Z,98018.84
2024-02-09T00:08:15.492Z,98014.66
2024-02-09T00:10:45.085Z,98008.75
2024-02-09T00:13:16.394Z,97997.66
2024-02-09T00:15:47.758Z,97990.84
2024-02-09T00:18:17.549Z,97974.72
2024-02-09T00:20:48.614Z,97990.09
2024-02-09T00:23:17.634Z,98029.94
2024-02-09T00:25:45.978Z,98030.81
2024-02-09T00:28:14.506Z,98020.75
2024-02-09T00:30:43.075Z,98031.78
2024-02-09T00:33:11.853Z,98026.69
2024-02-09T00:35:41.970Z,98021.59
2024-02-09T00:38:12.113Z,98030.03
2024-02-09T00:40:41.194Z,98026.69
2024-02-09T00:43:15.052Z,98025.88
2024-02-09T00:45:45.331Z,98019.91
2024-02-09T00:48:13.665Z,98020.00
2024-02-09T00:50:42.272Z,98026.81
2024-02-09T00:53:12.880Z,98026.00
2024-02-09T00:55:41.619Z,98023.53
2024-02-09T00:58:10.110Z,98024.44
2024-02-09T01:00:41.807Z,98023.63
2024-02-09T01:03:11.832Z,98017.69
2024-02-09T01:05:40.554Z,98002.44
2024-02-09T01:08:09.397Z,98018.50
2024-02-09T01:10:40.914Z,98024.44
2024-02-09T01:13:20.169Z,98021.91
2024-02-09T01:15:59.383Z,98015.09
2024-02-09T01:18:37.766Z,98014.28
2024-02-09T01:21:15.147Z,98011.69
2024-02-09T01:23:53.343Z,98014.97
2024-02-09T01:26:34.366Z,98009.88
2024-02-09T01:29:12.981Z,98003.06
2024-02-09T01:31:50.143Z,98006.50
2024-02-09T01:34:28.654Z,98001.41
2024-02-09T01:37:06.926Z,97994.63
2024-02-09T01:39:43.958Z,98006.53
2024-02-09T01:42:23.518Z,98006.59
2024-02-09T01:45:02.011Z,98001.66
2024-02-09T01:47:40.699Z,97994.94
2024-02-09T01:50:20.016Z,97989.03
2024-02-09T01:53:00.000Z,97977.25
2024-02-09T01:55:37.259Z,97973.09
2024-02-09T01:58:17.110Z,97968.13
2024-02-09T02:00:55.327Z,97964.84
2024-02-09T02:03:34.434Z,97949.63
2024-02-09T02:06:14.393Z,97952.25
2024-02-09T02:08:56.369Z,97952.38
2024-02-09T02:11:34.563Z,97956.66
2024-02-09T02:14:14.181Z,97952.56
2024-02-09T02:16:52.430Z,97950.22
2024-02-09T02:19:32.047Z,97956.31
2024-02-09T02:22:17.306Z,97951.31
2024-02-09T02:24:56.448Z,97942.84
2024-02-09T02:27:34.548Z,97940.31
2024-02-09T02:30:14.416Z,97945.47
2024-02-09T02:32:52.837Z,97935.38
2024-02-09T02:35:30.026Z,97927.91
2024-02-09T02:38:08.307Z,97933.03
2024-02-09T02:40:46.504Z,97941.63
2024-02-09T02:43:13.671Z,97944.19
2024-02-09T02:45:43.938Z,97934.84
2024-02-09T02:48:22.933Z,97943.28
2024-02-09T02:51:02.453Z,97939.03
2024-02-09T02:53:40.587Z,97934.84
2024-02-09T02:56:18.937Z,97929.00
2024-02-09T02:58:57.064Z,97942.59
2024-02-09T03:01:36.719Z,97953.66
2024-02-09T03:04:14.328Z,97959.75
2024-02-09T03:07:03.411Z,97953.81
2024-02-09T03:09:31.916Z,97958.09
2024-02-09T03:12:01.501Z,97968.31
2024-02-09T03:14:31.822Z,97964.94
2024-02-09T03:17:04.640Z,97959.97
2024-02-09T03:19:33.070Z,97958.28
2024-02-09T03:22:01.429Z,97966.75
2024-02-09T03:24:29.846Z,97968.50
2024-02-09T03:26:58.318Z,97964.31
2024-02-09T03:29:26.685Z,97962.69
2024-02-09T03:31:55.003Z,97966.94
2024-02-09T03:34:24.974Z,97973.75
2024-02-09T03:36:55.952Z,97962.81
2024-02-09T03:39:24.672Z,97970.44
2024-02-09T03:41:53.010Z,97968.75
2024-02-09T03:44:21.627Z,97967.91
2024-02-09T03:46:50.029Z,97968.69
2024-02-09T03:49:18.516Z,97975.44
2024-02-09T03:51:48.269Z,97972.06
2024-02-09T03:54:17.453Z,97972.09
2024-02-09T03:56:45.736Z,97965.34
2024-02-09T03:59:14.104Z,97963.63
2024-02-09T04:01:42.399Z,97975.44
2024-02-09T04:04:11.008Z,97984.00
2024-02-09T04:06:41.471Z,97992.53
2024-02-09T04:09:31.108Z,97978.13
2024-02-09T04:11:59.816Z,97978.97
2024-02-09T04:14:29.121Z,97981.50
2024-02-09T04:16:57.757Z,97980.75
2024-02-09T04:19:27.933Z,97984.19
2024-02-09T04:21:56.343Z,97974.84
2024-02-09T04:24:26.607Z,97976.53
2024-02-09T04:26:55.907Z,97982.56
2024-02-09T04:29:24.596Z,97969.94
2024-02-09T04:31:53.512Z,97967.41
2024-02-09T04:34:22.339Z,97958.16
2024-02-09T04:36:50.849Z,97957.31
2024-02-09T04:39:20.428Z,97962.38
2024-02-09T04:41:51.396Z,97953.91
2024-02-09T04:44:21.979Z,97950.50
2024-02-09T04:46:51.066Z,97946.25
2024-02-09T04:49:19.524Z,97947.94
2024-02-09T04:51:48.811Z,97948.75
2024-02-09T04:54:17.390Z,97933.53
2024-02-09T04:56:45.770Z,97942.84
2024-02-09T04:59:15.475Z,97933.59
2024-02-09T05:01:44.590Z,97936.13
2024-02-09T05:04:13.959Z,97945.41
2024-02-09T05:06:42.681Z,97940.34
2024-02-09T05:09:11.488Z,97932.78
2024-02-09T05:11:40.697Z,97931.03
2024-02-09T05:14:09.364Z,97920.03
2024-02-09T05:16:41.771Z,97910.72
2024-02-09T05:19:11.695Z,97915.78
2024-02-09T05:21:41.711Z,97908.19
2024-02-09T05:24:10.250Z,97904.84
2024-02-09T05:26:38.751Z,97896.34
2024-02-09T05:29:07.149Z,97887.81
2024-02-09T05:31:35.549Z,97889.53
2024-02-09T05:34:09.221Z,97889.59
2024-02-09T05:36:37.929Z,97898.06
2024-02-09T05:39:06.235Z,97898.03
2024-02-09T05:41:34.779Z,97904.84
2024-02-09T05:44:03.112Z,97903.13
2024-02-09T05:46:32.871Z,97904.75
2024-02-09T05:49:01.520Z,97904.72
2024-02-09T05:51:31.362Z,97909.78
2024-02-09T05:53:59.780Z,97919.03
2024-02-09T05:56:28.466Z,97924.97
2024-02-09T05:58:57.989Z,97923.22
2024-02-09T06:01:31.610Z,97926.63
2024-02-09T06:04:00.305Z,97920.72
2024-02-09T06:06:29.135Z,97918.19
2024-02-09T06:09:00.218Z,97930.03
2024-02-09T06:11:28.668Z,97925.84
2024-02-09T06:13:57.073Z,97915.69
2024-02-09T06:16:27.675Z,97914.88
2024-02-09T06:18:56.103Z,97914.06
2024-02-09T06:21:24.967Z,97898.94
2024-02-09T06:23:54.096Z,97898.09
2024-02-09T06:26:25.449Z,97907.34
2024-02-09T06:28:54.974Z,97900.59
2024-02-09T06:31:26.544Z,97909.88
2024-02-09T06:33:57.565Z,97907.34
2024-02-09T06:36:27.017Z,97923.41
2024-02-09T06:38:55.810Z,97918.34
2024-02-09T06:41:25.659Z,97933.53
2024-02-09T06:43:54.496Z,97940.31
2024-02-09T06:46:22.839Z,97922.56
2024-02-09T06:48:52.609Z,97926.72
2024-02-09T06:51:22.004Z,97930.06
2024-02-09T06:53:51.622Z,97926.69
2024-02-09T06:56:20.084Z,97919.88
2024-02-09T06:58:51.864Z,97921.50
2024-02-09T07:01:20.852Z,97929.09
2024-02-09T07:03:51.073Z,97928.19
2024-02-09T07:06:21.330Z,97930.66
2024-02-09T07:08:53.776Z,97925.56
2024-02-09T07:11:22.700Z,97929.75
2024-02-09T07:13:52.460Z,97921.25
2024-02-09T07:16:20.932Z,97931.28
2024-02-09T07:18:49.556Z,97921.06
2024-02-09T07:21:18.482Z,97921.88
2024-02-09T07:23:52.729Z,97926.84
2024-02-09T07:26:22.262Z,97932.63
2024-02-09T07:28:50.894Z,97929.97
2024-02-09T07:31:22.885Z,97926.47
2024-02-09T07:33:51.860Z,97850.84
2024-02-09T07:36:20.397Z,97914.34
2024-02-09T07:38:49.342Z,97909.94
2024-02-09T07:41:21.179Z,97919.16
2024-02-09T07:43:50.106Z,97905.59
2024-02-09T07:46:18.435Z,97906.28
2024-02-09T07:48:49.106Z,97910.47
2024-02-09T07:51:21.951Z,97911.16
2024-02-09T07:53:54.502Z,97911.91
2024-02-09T07:56:25.166Z,97893.97
2024-02-09T07:58:53.920Z,97894.69
2024-02-09T08:01:23.397Z,97898.81
2024-02-09T08:03:55.122Z,97893.59
2024-02-09T08:06:23.645Z,97890.94
2024-02-09T08:08:54.285Z,97887.50
2024-02-09T08:11:23.331Z,97886.56
2024-02-09T08:13:53.301Z,97878.88
2024-02-09T08:16:22.788Z,97871.16
2024-02-09T08:18:51.263Z,97877.06
2024-02-09T08:21:21.987Z,97881.97
2024-02-09T08:23:50.639Z,97877.50
2024-02-09T08:26:19.040Z,97868.91
2024-02-09T08:28:49.389Z,97867.06
2024-02-09T08:31:18.401Z,97877.22
2024-02-09T08:33:48.228Z,97867.00
2024-02-09T08:36:18.819Z,97866.94
2024-02-09T08:38:48.604Z,97863.50
2024-02-09T08:41:17.012Z,97865.97
2024-02-09T08:43:45.717Z,97858.28
2024-02-09T08:46:14.279Z,97859.88
2024-02-09T08:48:42.608Z,97851.44
2024-02-09T08:51:11.860Z,97848.78
2024-02-09T08:53:41.732Z,97856.31
2024-02-09T08:56:12.177Z,97847.75
2024-02-09T08:58:43.644Z,97849.34
2024-02-09T09:01:12.220Z,97834.78
2024-02-09T09:03:40.856Z,97828.66
2024-02-09T09:06:09.929Z,97826.78
2024-02-09T09:08:38.334Z,97822.28
2024-02-09T09:11:07.327Z,97816.09
2024-02-09T09:13:37.044Z,97822.69
2024-02-09T09:16:05.964Z,97817.47
2024-02-09T09:18:34.760Z,97816.50
2024-02-09T09:21:03.374Z,97805.31
2024-02-09T09:23:32.739Z,97805.97
2024-02-09T09:26:07.225Z,97804.16
2024-02-09T09:28:39.727Z,97795.50
2024-02-09T09:31:08.124Z,97798.63
2024-02-09T09:33:36.492Z,97790.84
2024-02-09T09:36:05.028Z,97789.00
2024-02-09T09:38:33.390Z,97790.50
2024-02-09T09:41:01.902Z,97802.19
2024-02-09T09:43:30.670Z,97798.59
2024-02-09T09:46:02.077Z,97797.56
2024-02-09T09:48:32.018Z,97797.50
2024-02-09T09:51:01.091Z,97794.03
2024-02-09T09:53:31.411Z,97793.13
2024-02-09T09:56:01.265Z,97796.56
2024-02-09T09:58:29.766Z,97787.94
2024-02-09T10:00:58.822Z,97801.28
2024-02-09T10:03:29.556Z,97803.63
2024-02-09T10:05:58.366Z,97791.66
2024-02-09T10:08:29.854Z,97784.47
2024-02-09T10:10:58.426Z,97798.44
2024-02-09T10:13:26.937Z,97781.06
2024-02-09T10:15:56.363Z,97782.53
2024-02-09T10:18:24.701Z,97774.59
2024-02-09T10:20:55.800Z,97786.25
2024-02-09T10:23:24.414Z,97783.56
2024-02-09T10:25:52.804Z,97759.56
2024-02-09T10:28:21.371Z,97760.31
2024-02-09T10:30:53.495Z,97744.06
2024-02-09T10:33:22.293Z,97759.91
2024-02-09T10:35:50.874Z,97756.31
2024-02-09T10:38:20.862Z,97763.75
2024-02-09T10:40:50.263Z,97748.94
2024-02-09T10:43:20.401Z,97751.22
2024-02-09T10:45:51.184Z,97739.00
2024-02-09T10:48:23.357Z,97728.44
2024-02-09T10:50:55.912Z,97729.75
2024-02-09T10:53:31.002Z,97736.06
2024-02-09T10:56:04.576Z,97729.97
2024-02-09T10:58:35.072Z,97735.72
2024-02-09T11:01:06.335Z,97731.31
2024-02-09T11:03:35.322Z,97723.47
2024-02-09T11:06:06.229Z,97725.91
2024-02-09T11:08:37.055Z,97721.44
2024-02-09T11:11:06.058Z,97722.97
2024-02-09T11:13:34.738Z,97705.84
2024-02-09T11:16:03.728Z,97706.28
2024-02-09T11:18:33.637Z,97699.16
2024-02-09T11:21:02.612Z,97693.53
2024-02-09T11:23:32.690Z,97695.13
2024-02-09T11:26:06.471Z,97702.69
2024-02-09T11:28:35.881Z,97694.56
2024-02-09T11:31:04.273Z,97691.84
2024-02-09T11:33:32.773Z,97689.75
2024-02-09T11:36:01.264Z,97691.66
2024-02-09T11:38:29.711Z,97698.47
2024-02-09T11:40:58.548Z,97692.75
2024-02-09T11:43:28.821Z,97686.97
2024-02-09T11:45:57.493Z,97683.59
2024-02-09T11:48:26.153Z,97680.41
2024-02-09T11:50:54.802Z,97683.84
2024-02-09T11:53:23.196Z,97679.78
2024-02-09T11:55:53.887Z,97679.66
2024-02-09T11:58:22.513Z,97688.19
2024-02-09T12:00:54.849Z,97682.19
2024-02-09T12:03:23.350Z,97681.28
2024-02-09T12:05:52.409Z,97678.72
2024-02-09T12:08:21.801Z,97682.19
2024-02-09T12:10:52.487Z,97674.38
2024-02-09T12:13:21.747Z,97683.72
2024-02-09T12:15:50.361Z,97677.56
2024-02-09T12:18:20.424Z,97685.91
2024-02-09T12:20:49.030Z,97680.84
2024-02-09T12:23:17.551Z,97680.00
2024-02-09T12:25:47.095Z,97671.56
2024-02-09T12:28:21.120Z,97673.97
2024-02-09T12:30:49.852Z,97675.44
2024-02-09T12:33:24.910Z,97677.91
2024-02-09T12:35:57.576Z,97680.47
2024-02-09T12:38:26.005Z,97672.97
2024-02-09T12:40:57.272Z,97674.78
2024-02-09T12:43:25.780Z,97668.00
2024-02-09T12:45:55.263Z,97664.53
2024-02-09T12:48:26.204Z,97655.97
2024-02-09T12:50:56.974Z,97664.28
2024-02-09T12:53:25.945Z,97662.47
2024-02-09T12:55:56.871Z,97659.69
2024-02-09T12:58:25.903Z,97651.06
2024-02-09T13:00:54.934Z,97656.84
2024-02-09T13:03:25.945Z,97649.06
2024-02-09T13:05:54.440Z,97652.66
2024-02-09T13:08:23.503Z,97659.56
2024-02-09T13:10:52.185Z,97655.22
2024-02-09T13:13:20.631Z,97658.66
2024-02-09T13:15:49.069Z,97660.44
2024-02-09T13:18:17.420Z,97649.38
2024-02-09T13:20:47.721Z,97640.09
2024-02-09T13:23:16.369Z,97646.13
2024-02-09T13:25:44.958Z,97639.97
2024-02-09T13:28:14.876Z,97642.47
2024-02-09T13:30:43.247Z,97641.66
2024-02-09T13:33:11.722Z,97653.53
2024-02-09T13:35:42.161Z,97643.41
2024-02-09T13:38:12.115Z,97641.78
2024-02-09T13:40:40.986Z,97638.28
2024-02-09T13:43:11.008Z,97646.88
2024-02-09T13:45:40.515Z,97645.09
2024-02-09T13:48:11.218Z,97637.50
2024-02-09T13:50:41.528Z,97644.22
2024-02-09T13:53:11.335Z,97634.72
2024-02-09T13:55:40.448Z,97641.44
2024-02-09T13:58:09.362Z,97633.78
2024-02-09T14:00:38.525Z,97632.84
2024-02-09T14:03:06.967Z,97631.91
2024-02-09T14:05:35.494Z,97631.91
2024-02-09T14:08:04.898Z,97630.25
2024-02-09T14:10:36.502Z,97635.41
2024-02-09T14:13:05.083Z,97636.25
2024-02-09T14:15:35.514Z,97633.63
2024-02-09T14:18:04.770Z,97636.34
2024-02-09T14:20:33.622Z,97632.94
2024-02-09T14:23:04.493Z,97634.72
2024-02-09T14:25:35.290Z,97636.38
2024-02-09T14:28:04.741Z,97639.78
2024-02-09T14:30:33.065Z,97638.19
2024-02-09T14:33:02.452Z,97649.44
2024-02-09T14:35:30.843Z,97645.22
2024-02-09T14:37:59.252Z,97650.34
2024-02-09T14:40:27.789Z,97645.34
2024-02-09T14:42:57.546Z,97645.34
2024-02-09T14:45:25.837Z,97653.94
2024-02-09T14:47:54.342Z,97643.81
2024-02-09T14:50:22.709Z,97652.41
2024-02-09T14:52:51.265Z,97648.28
2024-02-09T14:55:20.262Z,97645.78
2024-02-09T14:57:48.902Z,97647.63
2024-02-09T15:00:19.635Z,97639.28
2024-02-09T15:02:50.569Z,97637.66
2024-02-09T15:05:19.624Z,97646.22
2024-02-09T15:07:48.484Z,97637.91
2024-02-09T15:10:16.983Z,97635.53
2024-02-09T15:12:45.927Z,97629.72
2024-02-09T15:15:14.181Z,97631.63
2024-02-09T15:17:44.662Z,97636.00
2024-02-09T15:20:13.836Z,97635.22
2024-02-09T15:22:44.491Z,97635.44
2024-02-09T15:25:14.812Z,97640.00
2024-02-09T15:27:44.384Z,97638.50
2024-02-09T15:30:13.682Z,97631.09
2024-02-09T15:32:42.001Z,97637.31
2024-02-09T15:35:12.776Z,97635.00
2024-02-09T15:37:42.941Z,97624.06
2024-02-09T15:40:11.836Z,97619.06
2024-02-09T15:42:41.391Z,97618.47
2024-02-09T15:45:13.217Z,97613.56
2024-02-09T15:47:44.013Z,97615.38
2024-02-09T15:50:13.908Z,97612.13
2024-02-09T15:52:42.364Z,97615.69
2024-02-09T15:55:11.264Z,97612.50
2024-02-09T15:57:39.654Z,97610.91
2024-02-09T16:00:08.698Z,97611.16
2024-02-09T16:02:37.308Z,97606.25
2024-02-09T16:05:06.557Z,97617.50
2024-02-09T16:07:36.549Z,97627.13
2024-02-09T16:10:05.056Z,97626.50
2024-02-09T16:12:33.423Z,97634.25
2024-02-09T16:15:01.712Z,97638.47
2024-02-09T16:17:32.965Z,97635.91
2024-02-09T16:20:01.506Z,97634.19
2024-02-09T16:22:30.385Z,97637.69
2024-02-09T16:25:00.351Z,97642.03
2024-02-09T16:27:30.125Z,97639.53
2024-02-09T16:29:59.030Z,97637.94
2024-02-09T16:32:27.367Z,97644.91
2024-02-09T16:34:58.792Z,97650.88
2024-02-09T16:37:27.630Z,97653.44
2024-02-09T16:39:56.777Z,97650.13
2024-02-09T16:42:29.251Z,97660.31
2024-02-09T16:44:58.040Z,97661.31
2024-02-09T16:47:26.534Z,97662.31
2024-02-09T16:49:55.374Z,97670.84
2024-02-09T16:52:23.691Z,97672.63
2024-02-09T16:54:52.067Z,97681.16
2024-02-09T16:57:21.505Z,97678.66
2024-02-09T16:59:52.261Z,97676.03
2024-02-09T17:02:20.636Z,97676.84
2024-02-09T17:04:52.209Z,97680.06
2024-02-09T17:07:20.758Z,97686.69
2024-02-09T17:09:49.102Z,97679.88
2024-02-09T17:12:17.836Z,97679.69
2024-02-09T17:14:46.464Z,97682.25
2024-02-09T17:17:16.316Z,97669.16
2024-02-09T17:19:46.708Z,97667.69
2024-02-09T17:22:15.296Z,97669.78
2024-02-09T17:24:43.657Z,97665.47
2024-02-09T17:27:12.162Z,97667.09
2024-02-09T17:29:40.453Z,97660.47
2024-02-09T17:32:09.039Z,97662.13
2024-02-09T17:34:40.273Z,97663.91
2024-02-09T17:37:10.132Z,97656.25
2024-02-09T17:39:38.525Z,97658.81
2024-02-09T17:42:07.120Z,97648.34
2024-02-09T17:44:35.428Z,97649.78
2024-02-09T17:47:05.480Z,97651.22
2024-02-09T17:49:34.297Z,97647.66
2024-02-09T17:52:05.331Z,97649.25
2024-02-09T17:54:33.800Z,97651.03
2024-02-09T17:57:02.142Z,97642.69
2024-02-09T17:59:30.529Z,97652.00
2024-02-09T18:01:59.247Z,97649.44
2024-02-09T18:04:28.637Z,97646.84
2024-02-09T18:06:57.089Z,97645.16
2024-02-09T18:09:26.880Z,97644.22
2024-02-09T18:11:55.418Z,97645.94
2024-02-09T18:14:24.464Z,97647.56
2024-02-09T18:16:53.630Z,97642.53
2024-02-09T18:19:23.187Z,97637.44
2024-02-09T18:21:54.579Z,97651.13
2024-02-09T18:24:22.966Z,97644.22
2024-02-09T18:26:53.022Z,97645.78
2024-02-09T18:29:21.843Z,97643.38
2024-02-09T18:31:50.635Z,97641.00
2024-02-09T18:34:21.276Z,97639.34
2024-02-09T18:36:51.563Z,97641.09
2024-02-09T18:39:20.026Z,97639.81
2024-02-09T18:41:48.362Z,97633.38
2024-02-09T18:44:18.258Z,97645.56
2024-02-09T18:46:50.195Z,97647.47
2024-02-09T18:49:21.865Z,97643.09
2024-02-09T18:51:51.303Z,97652.19
2024-02-09T18:54:19.719Z,97655.53
2024-02-09T18:56:48.265Z,97652.91
2024-02-09T18:59:18.787Z,97648.34
2024-02-09T19:01:48.295Z,97652.22
2024-02-09T19:04:18.803Z,97645.94
2024-02-09T19:06:50.179Z,97647.47
2024-02-09T19:09:18.473Z,97653.13
2024-02-09T19:11:46.926Z,97652.94
2024-02-09T19:14:15.335Z,97654.31
2024-02-09T19:16:45.075Z,97659.34
2024-02-09T19:19:14.225Z,97656.97
2024-02-09T19:21:42.652Z,97655.06
2024-02-09T19:24:11.535Z,97656.09
2024-02-09T19:26:39.821Z,97655.44
2024-02-09T19:29:08.252Z,97644.66
2024-02-09T19:31:37.167Z,97653.25
2024-02-09T19:34:09.678Z,97652.47
2024-02-09T19:36:38.471Z,97649.91
2024-02-09T19:39:06.939Z,97651.53
2024-02-09T19:41:38.062Z,97648.66
2024-02-09T19:44:06.780Z,97640.97
2024-02-09T19:46:36.978Z,97631.56
2024-02-09T19:49:09.778Z,97637.47
2024-02-09T19:51:39.335Z,97636.66
2024-02-09T19:54:07.959Z,97629.78
2024-02-09T19:56:36.370Z,97628.19
2024-02-09T19:59:04.690Z,97634.88
2024-02-09T20:01:33.208Z,97625.50
2024-02-09T20:04:08.570Z,97631.31
2024-02-09T20:06:38.503Z,97624.41
2024-02-09T20:09:09.224Z,97629.50
2024-02-09T20:11:38.356Z,97632.16
2024-02-09T20:14:06.766Z,97624.59
2024-02-09T20:16:35.873Z,97632.31
2024-02-09T20:19:04.362Z,97628.06
2024-02-09T20:21:32.865Z,97639.16
2024-02-09T20:24:04.824Z,97633.19
2024-02-09T20:26:36.226Z,97633.19
2024-02-09T20:29:09.116Z,97636.66
2024-02-09T20:31:38.459Z,97628.19
2024-02-09T20:34:09.157Z,97623.94
2024-02-09T20:36:37.989Z,97629.88
2024-02-09T20:39:10.028Z,97629.00
2024-02-09T20:41:40.061Z,97641.53
2024-02-09T20:44:10.510Z,97632.91
2024-02-09T20:46:40.328Z,97632.84
2024-02-09T20:49:10.361Z,97631.09
2024-02-09T20:51:39.289Z,97639.63
2024-02-09T20:54:11.081Z,97632.06
2024-02-09T20:56:40.299Z,97627.97
2024-02-09T20:59:08.565Z,97636.41
2024-02-09T21:01:37.228Z,97641.31
2024-02-09T21:04:06.911Z,97634.41
2024-02-09T21:06:37.130Z,97639.75
2024-02-09T21:09:06.391Z,97638.28
2024-02-09T21:11:37.206Z,97643.69
2024-02-09T21:14:05.694Z,97631.88
2024-02-09T21:16:36.657Z,97638.94
2024-02-09T21:19:05.725Z,97628.72
2024-02-09T21:21:34.286Z,97626.19
2024-02-09T21:24:03.056Z,97623.59
2024-02-09T21:26:31.367Z,97628.63
2024-02-09T21:29:03.244Z,97623.34
2024-02-09T21:31:31.787Z,97628.34
2024-02-09T21:34:00.406Z,97630.00
2024-02-09T21:36:31.196Z,97632.63
2024-02-09T21:39:01.362Z,97631.78
2024-02-09T21:41:29.738Z,97631.78
2024-02-09T21:43:58.244Z,97626.66
2024-02-09T21:46:31.208Z,97626.56
2024-02-09T21:49:01.923Z,97621.19
2024-02-09T21:51:30.346Z,97622.88
2024-02-09T21:54:00.756Z,97612.38
2024-02-09T21:56:29.945Z,97613.03
2024-02-09T21:58:59.037Z,97623.91
2024-02-09T22:01:30.032Z,97616.97
2024-02-09T22:03:59.869Z,97612.63
2024-02-09T22:06:31.766Z,97605.91
2024-02-09T22:09:00.461Z,97601.56
2024-02-09T22:11:29.213Z,97601.44
2024-02-09T22:13:57.680Z,97606.44
2024-02-09T22:16:26.496Z,97602.22
2024-02-09T22:18:56.343Z,97594.53
2024-02-09T22:21:25.127Z,97587.75
2024-02-09T22:23:53.552Z,97597.97
2024-02-09T22:26:25.128Z,97594.53
2024-02-09T22:28:55.143Z,97593.81
2024-02-09T22:31:24.788Z,97602.47
2024-02-09T22:33:55.060Z,97603.34
2024-02-09T22:36:25.226Z,97599.19
2024-02-09T22:38:53.600Z,97600.97
2024-02-09T22:41:22.141Z,97589.91
2024-02-09T22:43:55.138Z,97589.81
2024-02-09T22:46:24.781Z,97596.56
2024-02-09T22:48:53.161Z,97591.44
2024-02-09T22:51:21.814Z,97589.69
2024-02-09T22:53:53.321Z,97591.44
2024-02-09T22:56:23.152Z,97595.03
2024-02-09T22:58:51.840Z,97592.56
2024-02-09T23:01:21.555Z,97591.59
2024-02-09T23:03:51.000Z,97591.44
2024-02-09T23:06:19.681Z,97588.00
2024-02-09T23:08:51.882Z,97582.91
2024-02-09T23:11:23.397Z,97582.91
2024-02-09T23:13:52.241Z,97575.31
2024-02-09T23:16:24.735Z,97578.00
2024-02-09T23:18:54.154Z,97562.69
2024-02-09T23:21:22.510Z,97567.78
2024-02-09T23:23:51.351Z,97566.25
2024-02-09T23:26:19.709Z,97565.56
2024-02-09T23:28:49.914Z,97556.16
2024-02-09T23:31:18.924Z,97558.78
2024-02-09T23:33:48.072Z,97552.84
2024-02-09T23:36:17.982Z,97541.06
2024-02-09T23:38:47.272Z,97549.63
2024-02-09T23:41:15.859Z,97529.19
2024-02-09T23:43:44.310Z,97535.00
2024-02-09T23:46:15.992Z,97527.28
2024-02-09T23:48:44.572Z,97522.31
2024-02-09T23:51:13.482Z,97520.63
2024-02-09T23:53:42.308Z,97518.84
2024-02-09T23:56:10.630Z,97526.63
2024-02-09T23:58:39.289Z,97521.13
